sensor_id;sensor_type;location;lat;lon;timestamp;P1;durP1;ratioP1;P2;durP2;ratioP2
64619;SDS011;51029;51.058;13.826;2023-11-22T00:00:06;14.80;;;13.20;;
64619;SDS011;51029;51.058;13.826;2023-11-22T00:02:33;15.47;;;12.90;;
64619;SDS011;51029;51.058;13.826;2023-11-22T00:04:59;19.33;;;14.40;;
64619;SDS011;51029;51.058;13.826;2023-11-22T00:07:25;16.10;;;13.83;;
64619;SDS011;51029;51.058;13.826;2023-11-22T00:09:55;17.20;;;14.50;;
64619;SDS011;51029;51.058;13.826;2023-11-22T00:12:21;17.03;;;14.80;;
64619;SDS011;51029;51.058;13.826;2023-11-22T00:14:48;17.40;;;14.27;;
64619;SDS011;51029;51.058;13.826;2023-11-22T00:17:14;17.87;;;15.33;;
64619;SDS011;51029;51.058;13.826;2023-11-22T00:19:42;19.17;;;15.87;;
64619;SDS011;51029;51.058;13.826;2023-11-22T00:22:09;17.43;;;15.00;;
64619;SDS011;51029;51.058;13.826;2023-11-22T00:24:40;16.90;;;14.83;;
64619;SDS011;51029;51.058;13.826;2023-11-22T00:27:06;20.23;;;15.10;;
64619;SDS011;51029;51.058;13.826;2023-11-22T00:29:33;19.27;;;16.23;;
64619;SDS011;51029;51.058;13.826;2023-11-22T00:31:59;19.37;;;15.90;;
64619;SDS011;51029;51.058;13.826;2023-11-22T00:34:26;18.73;;;16.73;;
64619;SDS011;51029;51.058;13.826;2023-11-22T00:36:52;22.90;;;16.13;;
64619;SDS011;51029;51.058;13.826;2023-11-22T00:39:18;19.33;;;15.73;;
64619;SDS011;51029;51.058;13.826;2023-11-22T00:41:44;21.47;;;16.97;;
64619;SDS011;51029;51.058;13.826;2023-11-22T00:44:10;21.33;;;17.50;;
64619;SDS011;51029;51.058;13.826;2023-11-22T00:46:37;20.60;;;17.97;;
64619;SDS011;51029;51.058;13.826;2023-11-22T00:49:03;21.50;;;18.13;;
64619;SDS011;51029;51.058;13.826;2023-11-22T00:51:30;20.97;;;17.37;;
64619;SDS011;51029;51.058;13.826;2023-11-22T00:53:56;21.23;;;16.27;;
64619;SDS011;51029;51.058;13.826;2023-11-22T00:56:22;22.63;;;16.80;;
64619;SDS011;51029;51.058;13.826;2023-11-22T00:58:48;20.67;;;17.07;;
64619;SDS011;51029;51.058;13.826;2023-11-22T01:01:15;20.83;;;16.20;;
64619;SDS011;51029;51.058;13.826;2023-11-22T01:03:41;21.17;;;16.83;;
64619;SDS011;51029;51.058;13.826;2023-11-22T01:06:07;21.63;;;17.57;;
64619;SDS011;51029;51.058;13.826;2023-11-22T01:08:34;22.40;;;17.37;;
64619;SDS011;51029;51.058;13.826;2023-11-22T01:11:00;25.17;;;18.30;;
64619;SDS011;51029;51.058;13.826;2023-11-22T01:13:28;21.87;;;17.00;;
64619;SDS011;51029;51.058;13.826;2023-11-22T01:15:54;24.27;;;18.03;;
64619;SDS011;51029;51.058;13.826;2023-11-22T01:18:20;24.23;;;18.07;;
64619;SDS011;51029;51.058;13.826;2023-11-22T01:20:47;23.07;;;17.17;;
64619;SDS011;51029;51.058;13.826;2023-11-22T01:23:13;21.87;;;16.57;;
64619;SDS011;51029;51.058;13.826;2023-11-22T01:25:39;24.97;;;17.57;;
64619;SDS011;51029;51.058;13.826;2023-11-22T01:28:05;22.57;;;18.03;;
64619;SDS011;51029;51.058;13.826;2023-11-22T01:30:31;21.83;;;16.73;;
64619;SDS011;51029;51.058;13.826;2023-11-22T01:32:58;23.00;;;17.07;;
64619;SDS011;51029;51.058;13.826;2023-11-22T01:35:24;22.53;;;17.60;;
64619;SDS011;51029;51.058;13.826;2023-11-22T01:37:50;22.77;;;18.13;;
64619;SDS011;51029;51.058;13.826;2023-11-22T01:40:17;20.73;;;16.63;;
64619;SDS011;51029;51.058;13.826;2023-11-22T01:42:44;24.67;;;18.80;;
64619;SDS011;51029;51.058;13.826;2023-11-22T01:45:11;22.87;;;17.10;;
64619;SDS011;51029;51.058;13.826;2023-11-22T01:47:38;22.57;;;17.07;;
64619;SDS011;51029;51.058;13.826;2023-11-22T01:50:05;23.63;;;17.37;;
64619;SDS011;51029;51.058;13.826;2023-11-22T01:52:33;23.53;;;17.63;;
64619;SDS011;51029;51.058;13.826;2023-11-22T01:54:59;23.73;;;18.57;;
64619;SDS011;51029;51.058;13.826;2023-11-22T01:57:26;23.53;;;16.63;;
64619;SDS011;51029;51.058;13.826;2023-11-22T01:59:52;20.00;;;16.77;;
64619;SDS011;51029;51.058;13.826;2023-11-22T02:02:18;22.83;;;17.00;;
64619;SDS011;51029;51.058;13.826;2023-11-22T02:04:44;21.83;;;17.20;;
64619;SDS011;51029;51.058;13.826;2023-11-22T02:07:10;22.00;;;16.77;;
64619;SDS011;51029;51.058;13.826;2023-11-22T02:09:36;20.93;;;16.83;;
64619;SDS011;51029;51.058;13.826;2023-11-22T02:12:02;23.20;;;17.93;;
64619;SDS011;51029;51.058;13.826;2023-11-22T02:14:28;22.20;;;16.20;;
64619;SDS011;51029;51.058;13.826;2023-11-22T02:16:53;22.77;;;17.77;;
64619;SDS011;51029;51.058;13.826;2023-11-22T02:19:20;21.60;;;16.97;;
64619;SDS011;51029;51.058;13.826;2023-11-22T02:21:46;23.07;;;18.17;;
64619;SDS011;51029;51.058;13.826;2023-11-22T02:24:12;26.53;;;18.30;;
64619;SDS011;51029;51.058;13.826;2023-11-22T02:26:43;21.80;;;16.67;;
64619;SDS011;51029;51.058;13.826;2023-11-22T02:29:09;23.57;;;17.60;;
64619;SDS011;51029;51.058;13.826;2023-11-22T02:31:35;21.90;;;17.40;;
64619;SDS011;51029;51.058;13.826;2023-11-22T02:34:01;23.03;;;17.93;;
64619;SDS011;51029;51.058;13.826;2023-11-22T02:36:26;24.10;;;18.10;;
64619;SDS011;51029;51.058;13.826;2023-11-22T02:38:52;25.57;;;18.40;;
64619;SDS011;51029;51.058;13.826;2023-11-22T02:41:19;23.97;;;18.20;;
64619;SDS011;51029;51.058;13.826;2023-11-22T02:43:45;26.83;;;19.03;;
64619;SDS011;51029;51.058;13.826;2023-11-22T02:46:11;26.23;;;19.43;;
64619;SDS011;51029;51.058;13.826;2023-11-22T02:48:37;24.93;;;19.33;;
64619;SDS011;51029;51.058;13.826;2023-11-22T02:51:03;25.33;;;19.43;;
64619;SDS011;51029;51.058;13.826;2023-11-22T02:53:31;26.00;;;18.87;;
64619;SDS011;51029;51.058;13.826;2023-11-22T02:56:00;26.77;;;19.10;;
64619;SDS011;51029;51.058;13.826;2023-11-22T02:58:29;27.50;;;19.37;;
64619;SDS011;51029;51.058;13.826;2023-11-22T03:00:56;28.63;;;19.53;;
64619;SDS011;51029;51.058;13.826;2023-11-22T03:03:22;26.97;;;19.77;;
64619;SDS011;51029;51.058;13.826;2023-11-22T03:05:49;28.17;;;19.93;;
64619;SDS011;51029;51.058;13.826;2023-11-22T03:08:15;27.67;;;19.33;;
64619;SDS011;51029;51.058;13.826;2023-11-22T03:10:42;26.10;;;19.03;;
64619;SDS011;51029;51.058;13.826;2023-11-22T03:13:08;29.00;;;19.20;;
64619;SDS011;51029;51.058;13.826;2023-11-22T03:15:34;27.00;;;19.13;;
64619;SDS011;51029;51.058;13.826;2023-11-22T03:18:00;26.17;;;19.50;;
64619;SDS011;51029;51.058;13.826;2023-11-22T03:20:26;25.30;;;19.33;;
64619;SDS011;51029;51.058;13.826;2023-11-22T03:22:52;26.10;;;19.00;;
64619;SDS011;51029;51.058;13.826;2023-11-22T03:25:18;23.20;;;19.13;;
64619;SDS011;51029;51.058;13.826;2023-11-22T03:27:44;28.03;;;19.03;;
64619;SDS011;51029;51.058;13.826;2023-11-22T03:30:12;29.10;;;20.83;;
64619;SDS011;51029;51.058;13.826;2023-11-22T03:32:40;24.13;;;17.97;;
64619;SDS011;51029;51.058;13.826;2023-11-22T03:35:06;28.20;;;20.50;;
64619;SDS011;51029;51.058;13.826;2023-11-22T03:37:33;28.13;;;19.53;;
64619;SDS011;51029;51.058;13.826;2023-11-22T03:39:59;28.40;;;19.90;;
64619;SDS011;51029;51.058;13.826;2023-11-22T03:42:25;26.40;;;19.10;;
64619;SDS011;51029;51.058;13.826;2023-11-22T03:44:54;25.60;;;19.50;;
64619;SDS011;51029;51.058;13.826;2023-11-22T03:47:20;25.40;;;19.53;;
64619;SDS011;51029;51.058;13.826;2023-11-22T03:49:46;28.60;;;19.07;;
64619;SDS011;51029;51.058;13.826;2023-11-22T03:52:12;24.80;;;18.93;;
64619;SDS011;51029;51.058;13.826;2023-11-22T03:54:40;26.40;;;19.33;;
64619;SDS011;51029;51.058;13.826;2023-11-22T03:57:06;26.47;;;18.57;;
64619;SDS011;51029;51.058;13.826;2023-11-22T03:59:33;24.27;;;18.03;;
64619;SDS011;51029;51.058;13.826;2023-11-22T04:01:59;27.27;;;19.10;;
64619;SDS011;51029;51.058;13.826;2023-11-22T04:04:25;25.50;;;17.70;;
64619;SDS011;51029;51.058;13.826;2023-11-22T04:06:51;23.33;;;17.47;;
64619;SDS011;51029;51.058;13.826;2023-11-22T04:09:17;22.67;;;17.60;;
64619;SDS011;51029;51.058;13.826;2023-11-22T04:11:45;22.80;;;17.63;;
64619;SDS011;51029;51.058;13.826;2023-11-22T04:14:11;24.40;;;17.30;;
64619;SDS011;51029;51.058;13.826;2023-11-22T04:16:37;24.63;;;17.80;;
64619;SDS011;51029;51.058;13.826;2023-11-22T04:19:03;21.27;;;16.47;;
64619;SDS011;51029;51.058;13.826;2023-11-22T04:21:29;21.20;;;16.80;;
64619;SDS011;51029;51.058;13.826;2023-11-22T04:23:55;21.97;;;16.57;;
64619;SDS011;51029;51.058;13.826;2023-11-22T04:26:21;20.60;;;15.97;;
64619;SDS011;51029;51.058;13.826;2023-11-22T04:28:47;21.80;;;17.37;;
64619;SDS011;51029;51.058;13.826;2023-11-22T04:31:13;20.93;;;16.30;;
64619;SDS011;51029;51.058;13.826;2023-11-22T04:33:40;20.07;;;15.57;;
64619;SDS011;51029;51.058;13.826;2023-11-22T04:36:06;20.60;;;16.23;;
64619;SDS011;51029;51.058;13.826;2023-11-22T04:38:32;21.07;;;16.37;;
64619;SDS011;51029;51.058;13.826;2023-11-22T04:40:59;19.60;;;15.27;;
64619;SDS011;51029;51.058;13.826;2023-11-22T04:43:25;19.30;;;16.00;;
64619;SDS011;51029;51.058;13.826;2023-11-22T04:45:51;22.17;;;16.73;;
64619;SDS011;51029;51.058;13.826;2023-11-22T04:48:17;21.83;;;16.60;;
64619;SDS011;51029;51.058;13.826;2023-11-22T04:50:43;20.10;;;15.80;;
64619;SDS011;51029;51.058;13.826;2023-11-22T04:53:10;21.10;;;17.00;;
64619;SDS011;51029;51.058;13.826;2023-11-22T04:55:36;20.67;;;15.93;;
64619;SDS011;51029;51.058;13.826;2023-11-22T04:58:02;20.47;;;16.13;;
64619;SDS011;51029;51.058;13.826;2023-11-22T05:00:28;22.57;;;16.70;;
64619;SDS011;51029;51.058;13.826;2023-11-22T05:02:54;23.10;;;17.60;;
64619;SDS011;51029;51.058;13.826;2023-11-22T05:05:20;21.43;;;16.63;;
64619;SDS011;51029;51.058;13.826;2023-11-22T05:07:46;21.57;;;16.97;;
64619;SDS011;51029;51.058;13.826;2023-11-22T05:10:12;23.07;;;17.17;;
64619;SDS011;51029;51.058;13.826;2023-11-22T05:12:39;25.97;;;18.33;;
64619;SDS011;51029;51.058;13.826;2023-11-22T05:15:06;26.07;;;19.23;;
64619;SDS011;51029;51.058;13.826;2023-11-22T05:17:32;24.57;;;18.23;;
64619;SDS011;51029;51.058;13.826;2023-11-22T05:19:58;25.20;;;18.27;;
64619;SDS011;51029;51.058;13.826;2023-11-22T05:22:24;25.87;;;18.83;;
64619;SDS011;51029;51.058;13.826;2023-11-22T05:24:50;23.30;;;18.33;;
64619;SDS011;51029;51.058;13.826;2023-11-22T05:27:16;24.70;;;18.43;;
64619;SDS011;51029;51.058;13.826;2023-11-22T05:29:42;24.53;;;17.77;;
64619;SDS011;51029;51.058;13.826;2023-11-22T05:32:08;24.37;;;18.53;;
64619;SDS011;51029;51.058;13.826;2023-11-22T05:34:34;26.17;;;18.63;;
64619;SDS011;51029;51.058;13.826;2023-11-22T05:37:00;25.77;;;19.50;;
64619;SDS011;51029;51.058;13.826;2023-11-22T05:39:26;30.67;;;20.43;;
64619;SDS011;51029;51.058;13.826;2023-11-22T05:41:53;26.50;;;19.70;;
64619;SDS011;51029;51.058;13.826;2023-11-22T05:44:19;27.07;;;19.33;;
64619;SDS011;51029;51.058;13.826;2023-11-22T05:46:45;28.03;;;19.70;;
64619;SDS011;51029;51.058;13.826;2023-11-22T05:49:11;26.17;;;19.33;;
64619;SDS011;51029;51.058;13.826;2023-11-22T05:51:37;29.53;;;20.73;;
64619;SDS011;51029;51.058;13.826;2023-11-22T05:54:03;25.83;;;19.43;;
64619;SDS011;51029;51.058;13.826;2023-11-22T05:56:29;29.33;;;20.90;;
64619;SDS011;51029;51.058;13.826;2023-11-22T05:58:55;27.07;;;19.53;;
64619;SDS011;51029;51.058;13.826;2023-11-22T06:01:21;27.40;;;19.73;;
64619;SDS011;51029;51.058;13.826;2023-11-22T06:03:47;28.07;;;20.17;;
64619;SDS011;51029;51.058;13.826;2023-11-22T06:06:13;32.43;;;21.37;;
64619;SDS011;51029;51.058;13.826;2023-11-22T06:08:39;27.30;;;21.07;;
64619;SDS011;51029;51.058;13.826;2023-11-22T06:11:05;30.10;;;20.50;;
64619;SDS011;51029;51.058;13.826;2023-11-22T06:13:32;24.83;;;19.23;;
64619;SDS011;51029;51.058;13.826;2023-11-22T06:15:58;28.93;;;21.60;;
64619;SDS011;51029;51.058;13.826;2023-11-22T06:18:24;28.23;;;20.93;;
64619;SDS011;51029;51.058;13.826;2023-11-22T06:20:54;27.83;;;20.17;;
64619;SDS011;51029;51.058;13.826;2023-11-22T06:23:20;29.03;;;21.90;;
64619;SDS011;51029;51.058;13.826;2023-11-22T06:25:46;30.27;;;21.37;;
64619;SDS011;51029;51.058;13.826;2023-11-22T06:28:12;28.57;;;21.17;;
64619;SDS011;51029;51.058;13.826;2023-11-22T06:30:38;27.73;;;20.60;;
64619;SDS011;51029;51.058;13.826;2023-11-22T06:33:04;30.10;;;21.00;;
64619;SDS011;51029;51.058;13.826;2023-11-22T06:35:30;25.27;;;20.03;;
64619;SDS011;51029;51.058;13.826;2023-11-22T06:37:56;29.97;;;19.60;;
64619;SDS011;51029;51.058;13.826;2023-11-22T06:40:22;26.43;;;20.00;;
64619;SDS011;51029;51.058;13.826;2023-11-22T06:42:48;29.60;;;20.27;;
64619;SDS011;51029;51.058;13.826;2023-11-22T06:45:14;30.97;;;21.73;;
64619;SDS011;51029;51.058;13.826;2023-11-22T06:47:41;29.33;;;20.90;;
64619;SDS011;51029;51.058;13.826;2023-11-22T06:50:08;27.43;;;21.07;;
64619;SDS011;51029;51.058;13.826;2023-11-22T06:52:37;29.97;;;20.30;;
64619;SDS011;51029;51.058;13.826;2023-11-22T06:55:07;31.00;;;21.57;;
64619;SDS011;51029;51.058;13.826;2023-11-22T06:57:33;29.90;;;21.43;;
64619;SDS011;51029;51.058;13.826;2023-11-22T07:00:00;29.47;;;20.97;;
64619;SDS011;51029;51.058;13.826;2023-11-22T07:02:29;29.90;;;22.07;;
64619;SDS011;51029;51.058;13.826;2023-11-22T07:04:55;30.40;;;21.47;;
64619;SDS011;51029;51.058;13.826;2023-11-22T07:07:24;26.83;;;20.23;;
64619;SDS011;51029;51.058;13.826;2023-11-22T07:09:49;30.00;;;22.87;;
64619;SDS011;51029;51.058;13.826;2023-11-22T07:12:15;30.93;;;21.80;;
64619;SDS011;51029;51.058;13.826;2023-11-22T07:14:41;30.63;;;21.57;;
64619;SDS011;51029;51.058;13.826;2023-11-22T07:17:08;30.60;;;22.17;;
64619;SDS011;51029;51.058;13.826;2023-11-22T07:19:35;33.07;;;23.13;;
64619;SDS011;51029;51.058;13.826;2023-11-22T07:22:03;29.90;;;21.37;;
64619;SDS011;51029;51.058;13.826;2023-11-22T07:24:31;30.10;;;21.07;;
64619;SDS011;51029;51.058;13.826;2023-11-22T07:26:59;28.73;;;20.60;;
64619;SDS011;51029;51.058;13.826;2023-11-22T07:29:26;27.40;;;20.07;;
64619;SDS011;51029;51.058;13.826;2023-11-22T07:31:54;29.13;;;21.07;;
64619;SDS011;51029;51.058;13.826;2023-11-22T07:34:21;27.17;;;19.13;;
64619;SDS011;51029;51.058;13.826;2023-11-22T07:36:48;29.50;;;20.17;;
64619;SDS011;51029;51.058;13.826;2023-11-22T07:39:15;28.07;;;19.73;;
64619;SDS011;51029;51.058;13.826;2023-11-22T07:41:44;26.07;;;18.60;;
64619;SDS011;51029;51.058;13.826;2023-11-22T07:44:10;23.87;;;17.80;;
64619;SDS011;51029;51.058;13.826;2023-11-22T07:46:36;26.27;;;20.00;;
64619;SDS011;51029;51.058;13.826;2023-11-22T07:49:02;27.20;;;19.13;;
64619;SDS011;51029;51.058;13.826;2023-11-22T07:51:28;28.33;;;19.80;;
64619;SDS011;51029;51.058;13.826;2023-11-22T07:53:55;26.73;;;19.30;;
64619;SDS011;51029;51.058;13.826;2023-11-22T07:56:21;24.93;;;18.77;;
64619;SDS011;51029;51.058;13.826;2023-11-22T07:58:47;24.67;;;19.23;;
64619;SDS011;51029;51.058;13.826;2023-11-22T08:01:13;25.17;;;19.13;;
64619;SDS011;51029;51.058;13.826;2023-11-22T08:03:39;26.60;;;19.63;;
64619;SDS011;51029;51.058;13.826;2023-11-22T08:06:10;25.00;;;18.90;;
64619;SDS011;51029;51.058;13.826;2023-11-22T08:08:36;25.50;;;18.73;;
64619;SDS011;51029;51.058;13.826;2023-11-22T08:11:04;27.07;;;19.23;;
64619;SDS011;51029;51.058;13.826;2023-11-22T08:13:30;28.77;;;21.27;;
64619;SDS011;51029;51.058;13.826;2023-11-22T08:15:56;24.97;;;18.23;;
64619;SDS011;51029;51.058;13.826;2023-11-22T08:18:22;29.47;;;21.10;;
64619;SDS011;51029;51.058;13.826;2023-11-22T08:20:49;25.67;;;18.37;;
64619;SDS011;51029;51.058;13.826;2023-11-22T08:23:14;28.23;;;19.23;;
64619;SDS011;51029;51.058;13.826;2023-11-22T08:25:40;24.93;;;18.47;;
64619;SDS011;51029;51.058;13.826;2023-11-22T08:28:06;28.10;;;19.40;;
64619;SDS011;51029;51.058;13.826;2023-11-22T08:30:33;27.90;;;18.97;;
64619;SDS011;51029;51.058;13.826;2023-11-22T08:33:00;28.90;;;21.30;;
64619;SDS011;51029;51.058;13.826;2023-11-22T08:35:27;27.23;;;19.37;;
64619;SDS011;51029;51.058;13.826;2023-11-22T08:37:53;27.33;;;20.00;;
64619;SDS011;51029;51.058;13.826;2023-11-22T08:40:22;26.90;;;20.40;;
64619;SDS011;51029;51.058;13.826;2023-11-22T08:42:48;27.43;;;20.00;;
64619;SDS011;51029;51.058;13.826;2023-11-22T08:45:14;28.27;;;19.77;;
64619;SDS011;51029;51.058;13.826;2023-11-22T08:47:40;30.33;;;20.17;;
64619;SDS011;51029;51.058;13.826;2023-11-22T08:50:07;28.37;;;20.30;;
64619;SDS011;51029;51.058;13.826;2023-11-22T08:52:35;27.23;;;19.30;;
64619;SDS011;51029;51.058;13.826;2023-11-22T08:55:03;26.70;;;19.03;;
64619;SDS011;51029;51.058;13.826;2023-11-22T08:57:29;26.50;;;19.27;;
64619;SDS011;51029;51.058;13.826;2023-11-22T08:59:55;28.97;;;19.77;;
64619;SDS011;51029;51.058;13.826;2023-11-22T09:02:21;24.33;;;17.77;;
64619;SDS011;51029;51.058;13.826;2023-11-22T09:04:48;26.93;;;17.93;;
64619;SDS011;51029;51.058;13.826;2023-11-22T09:07:14;25.90;;;17.67;;
64619;SDS011;51029;51.058;13.826;2023-11-22T09:09:41;24.17;;;17.43;;
64619;SDS011;51029;51.058;13.826;2023-11-22T09:12:08;24.00;;;16.00;;
64619;SDS011;51029;51.058;13.826;2023-11-22T09:14:38;22.30;;;15.60;;
64619;SDS011;51029;51.058;13.826;2023-11-22T09:17:05;23.30;;;17.27;;
64619;SDS011;51029;51.058;13.826;2023-11-22T09:19:32;22.37;;;15.70;;
64619;SDS011;51029;51.058;13.826;2023-11-22T09:21:58;21.10;;;16.20;;
64619;SDS011;51029;51.058;13.826;2023-11-22T09:24:25;20.57;;;15.90;;
64619;SDS011;51029;51.058;13.826;2023-11-22T09:26:51;21.80;;;15.90;;
64619;SDS011;51029;51.058;13.826;2023-11-22T09:29:17;24.17;;;17.13;;
64619;SDS011;51029;51.058;13.826;2023-11-22T09:31:44;24.53;;;14.70;;
64619;SDS011;51029;51.058;13.826;2023-11-22T09:34:13;21.67;;;15.80;;
64619;SDS011;51029;51.058;13.826;2023-11-22T09:36:40;23.00;;;16.10;;
64619;SDS011;51029;51.058;13.826;2023-11-22T09:39:06;18.57;;;14.70;;
64619;SDS011;51029;51.058;13.826;2023-11-22T09:41:35;19.43;;;14.43;;
64619;SDS011;51029;51.058;13.826;2023-11-22T09:44:01;16.90;;;13.20;;
64619;SDS011;51029;51.058;13.826;2023-11-22T09:46:28;21.20;;;14.03;;
64619;SDS011;51029;51.058;13.826;2023-11-22T09:48:55;18.20;;;13.60;;
64619;SDS011;51029;51.058;13.826;2023-11-22T09:51:26;25.97;;;16.93;;
64619;SDS011;51029;51.058;13.826;2023-11-22T09:53:55;18.83;;;14.13;;
64619;SDS011;51029;51.058;13.826;2023-11-22T09:56:22;17.93;;;13.27;;
64619;SDS011;51029;51.058;13.826;2023-11-22T09:58:49;17.30;;;13.70;;
64619;SDS011;51029;51.058;13.826;2023-11-22T10:01:19;18.33;;;12.97;;
64619;SDS011;51029;51.058;13.826;2023-11-22T10:03:46;17.73;;;13.90;;
64619;SDS011;51029;51.058;13.826;2023-11-22T10:06:13;16.80;;;12.93;;
64619;SDS011;51029;51.058;13.826;2023-11-22T10:08:40;20.43;;;14.17;;
64619;SDS011;51029;51.058;13.826;2023-11-22T10:11:06;17.60;;;12.47;;
64619;SDS011;51029;51.058;13.826;2023-11-22T10:13:32;16.53;;;12.90;;
64619;SDS011;51029;51.058;13.826;2023-11-22T10:16:12;18.57;;;13.17;;
64619;SDS011;51029;51.058;13.826;2023-11-22T10:18:43;16.20;;;11.43;;
64619;SDS011;51029;51.058;13.826;2023-11-22T10:21:21;18.27;;;12.50;;
64619;SDS011;51029;51.058;13.826;2023-11-22T10:23:48;17.10;;;12.67;;
64619;SDS011;51029;51.058;13.826;2023-11-22T10:26:16;16.47;;;12.50;;
64619;SDS011;51029;51.058;13.826;2023-11-22T10:28:42;15.57;;;11.77;;
64619;SDS011;51029;51.058;13.826;2023-11-22T10:31:08;13.97;;;11.30;;
64619;SDS011;51029;51.058;13.826;2023-11-22T10:33:42;15.97;;;11.53;;
64619;SDS011;51029;51.058;13.826;2023-11-22T10:36:08;16.27;;;12.10;;
64619;SDS011;51029;51.058;13.826;2023-11-22T10:38:34;14.33;;;11.03;;
64619;SDS011;51029;51.058;13.826;2023-11-22T10:41:03;15.60;;;10.83;;
64619;SDS011;51029;51.058;13.826;2023-11-22T10:46:32;15.23;;;11.73;;
64619;SDS011;51029;51.058;13.826;2023-11-22T10:49:14;17.07;;;12.40;;
64619;SDS011;51029;51.058;13.826;2023-11-22T10:51:40;16.93;;;12.00;;
64619;SDS011;51029;51.058;13.826;2023-11-22T10:57:10;13.57;;;10.33;;
64619;SDS011;51029;51.058;13.826;2023-11-22T10:59:37;15.07;;;11.53;;
64619;SDS011;51029;51.058;13.826;2023-11-22T11:02:05;16.00;;;12.07;;
64619;SDS011;51029;51.058;13.826;2023-11-22T11:04:52;16.17;;;11.13;;
64619;SDS011;51029;51.058;13.826;2023-11-22T11:07:19;14.17;;;10.87;;
64619;SDS011;51029;51.058;13.826;2023-11-22T11:09:47;14.17;;;10.43;;
64619;SDS011;51029;51.058;13.826;2023-11-22T11:12:16;15.00;;;11.17;;
64619;SDS011;51029;51.058;13.826;2023-11-22T11:14:42;13.33;;;10.37;;
64619;SDS011;51029;51.058;13.826;2023-11-22T11:17:10;11.63;;;10.23;;
64619;SDS011;51029;51.058;13.826;2023-11-22T11:19:36;13.23;;;10.40;;
64619;SDS011;51029;51.058;13.826;2023-11-22T11:22:02;15.17;;;10.97;;
64619;SDS011;51029;51.058;13.826;2023-11-22T11:24:29;14.43;;;10.40;;
64619;SDS011;51029;51.058;13.826;2023-11-22T11:26:55;14.13;;;11.13;;
64619;SDS011;51029;51.058;13.826;2023-11-22T11:29:35;13.93;;;10.10;;
64619;SDS011;51029;51.058;13.826;2023-11-22T11:32:05;13.60;;;10.80;;
64619;SDS011;51029;51.058;13.826;2023-11-22T11:34:45;13.20;;;10.53;;
64619;SDS011;51029;51.058;13.826;2023-11-22T11:37:13;14.07;;;10.77;;
64619;SDS011;51029;51.058;13.826;2023-11-22T11:39:40;12.10;;;9.70;;
64619;SDS011;51029;51.058;13.826;2023-11-22T11:42:10;12.00;;;9.83;;
64619;SDS011;51029;51.058;13.826;2023-11-22T11:44:36;13.27;;;10.10;;
64619;SDS011;51029;51.058;13.826;2023-11-22T11:47:09;13.13;;;10.07;;
64619;SDS011;51029;51.058;13.826;2023-11-22T11:49:36;11.80;;;10.13;;
64619;SDS011;51029;51.058;13.826;2023-11-22T11:52:04;12.27;;;9.40;;
64619;SDS011;51029;51.058;13.826;2023-11-22T11:54:30;14.77;;;10.87;;
64619;SDS011;51029;51.058;13.826;2023-11-22T11:56:59;13.57;;;10.60;;
64619;SDS011;51029;51.058;13.826;2023-11-22T11:59:25;13.33;;;10.13;;
64619;SDS011;51029;51.058;13.826;2023-11-22T12:01:54;13.10;;;10.27;;
64619;SDS011;51029;51.058;13.826;2023-11-22T12:04:23;12.90;;;10.17;;
64619;SDS011;51029;51.058;13.826;2023-11-22T12:06:49;13.13;;;9.67;;
64619;SDS011;51029;51.058;13.826;2023-11-22T12:09:24;13.90;;;10.10;;
64619;SDS011;51029;51.058;13.826;2023-11-22T12:11:51;14.43;;;10.13;;
64619;SDS011;51029;51.058;13.826;2023-11-22T12:14:20;14.27;;;9.40;;
64619;SDS011;51029;51.058;13.826;2023-11-22T12:16:46;14.67;;;9.53;;
64619;SDS011;51029;51.058;13.826;2023-11-22T12:19:31;12.43;;;9.80;;
64619;SDS011;51029;51.058;13.826;2023-11-22T12:21:58;12.37;;;9.07;;
64619;SDS011;51029;51.058;13.826;2023-11-22T12:24:24;12.57;;;10.13;;
64619;SDS011;51029;51.058;13.826;2023-11-22T12:26:50;12.27;;;9.93;;
64619;SDS011;51029;51.058;13.826;2023-11-22T12:29:17;12.13;;;9.53;;
64619;SDS011;51029;51.058;13.826;2023-11-22T12:31:48;10.20;;;8.43;;
64619;SDS011;51029;51.058;13.826;2023-11-22T12:34:20;11.13;;;8.67;;
64619;SDS011;51029;51.058;13.826;2023-11-22T12:36:46;11.80;;;9.00;;
64619;SDS011;51029;51.058;13.826;2023-11-22T12:39:12;11.90;;;9.07;;
64619;SDS011;51029;51.058;13.826;2023-11-22T12:41:45;11.80;;;10.10;;
64619;SDS011;51029;51.058;13.826;2023-11-22T12:44:11;10.10;;;8.43;;
64619;SDS011;51029;51.058;13.826;2023-11-22T12:49:35;11.60;;;9.90;;
64619;SDS011;51029;51.058;13.826;2023-11-22T12:52:08;10.37;;;9.27;;
64619;SDS011;51029;51.058;13.826;2023-11-22T12:54:34;11.23;;;8.57;;
64619;SDS011;51029;51.058;13.826;2023-11-22T12:57:00;11.63;;;9.23;;
64619;SDS011;51029;51.058;13.826;2023-11-22T12:59:27;9.93;;;8.57;;
64619;SDS011;51029;51.058;13.826;2023-11-22T13:01:55;11.93;;;9.10;;
64619;SDS011;51029;51.058;13.826;2023-11-22T13:04:22;10.80;;;9.10;;
64619;SDS011;51029;51.058;13.826;2023-11-22T13:06:48;13.07;;;9.43;;
64619;SDS011;51029;51.058;13.826;2023-11-22T13:09:14;10.73;;;8.20;;
64619;SDS011;51029;51.058;13.826;2023-11-22T13:11:41;10.47;;;8.97;;
64619;SDS011;51029;51.058;13.826;2023-11-22T13:14:08;12.53;;;9.37;;
64619;SDS011;51029;51.058;13.826;2023-11-22T13:16:34;11.17;;;9.23;;
64619;SDS011;51029;51.058;13.826;2023-11-22T13:19:02;11.53;;;9.67;;
64619;SDS011;51029;51.058;13.826;2023-11-22T13:21:29;11.13;;;8.80;;
64619;SDS011;51029;51.058;13.826;2023-11-22T13:23:56;12.33;;;9.47;;
64619;SDS011;51029;51.058;13.826;2023-11-22T13:26:24;12.93;;;9.90;;
64619;SDS011;51029;51.058;13.826;2023-11-22T13:28:50;12.73;;;10.10;;
64619;SDS011;51029;51.058;13.826;2023-11-22T13:31:18;12.40;;;10.17;;
64619;SDS011;51029;51.058;13.826;2023-11-22T13:33:44;13.17;;;10.63;;
64619;SDS011;51029;51.058;13.826;2023-11-22T13:36:12;12.40;;;9.93;;
64619;SDS011;51029;51.058;13.826;2023-11-22T13:38:39;12.00;;;10.27;;
64619;SDS011;51029;51.058;13.826;2023-11-22T13:41:05;13.27;;;11.17;;
64619;SDS011;51029;51.058;13.826;2023-11-22T13:43:31;14.37;;;10.63;;
64619;SDS011;51029;51.058;13.826;2023-11-22T13:46:00;12.37;;;10.10;;
64619;SDS011;51029;51.058;13.826;2023-11-22T13:48:26;12.20;;;10.03;;
64619;SDS011;51029;51.058;13.826;2023-11-22T13:50:52;12.07;;;10.23;;
64619;SDS011;51029;51.058;13.826;2023-11-22T13:53:18;13.80;;;9.90;;
64619;SDS011;51029;51.058;13.826;2023-11-22T13:55:47;12.20;;;9.03;;
64619;SDS011;51029;51.058;13.826;2023-11-22T13:58:15;10.83;;;8.83;;
64619;SDS011;51029;51.058;13.826;2023-11-22T14:00:40;12.07;;;9.60;;
64619;SDS011;51029;51.058;13.826;2023-11-22T14:03:06;10.37;;;8.90;;
64619;SDS011;51029;51.058;13.826;2023-11-22T14:05:33;11.13;;;8.67;;
64619;SDS011;51029;51.058;13.826;2023-11-22T14:08:01;14.57;;;9.27;;
64619;SDS011;51029;51.058;13.826;2023-11-22T14:10:27;11.63;;;9.70;;
64619;SDS011;51029;51.058;13.826;2023-11-22T14:12:53;12.13;;;9.47;;
64619;SDS011;51029;51.058;13.826;2023-11-22T14:15:19;11.97;;;9.67;;
64619;SDS011;51029;51.058;13.826;2023-11-22T14:17:45;11.00;;;8.97;;